createdAt,value
2018-06-16T00:00:16.563Z,5.78
2018-06-16T00:00:49.671Z,5.90
2018-06-16T00:01:22.798Z,5.90
2018-06-16T00:01:55.893Z,6.12
2018-06-16T00:02:28.998Z,6.00
2018-06-16T00:03:02.113Z,6.00
2018-06-16T00:03:35.221Z,5.80
2018-06-16T00:04:08.302Z,4.95
2018-06-16T00:04:41.408Z,5.25
2018-06-16T00:05:14.523Z,5.95
2018-06-16T00:05:47.790Z,5.40
2018-06-16T00:06:21.676Z,5.30
2018-06-16T00:06:54.859Z,5.85
2018-06-16T00:07:28.244Z,5.50
2018-06-16T00:08:01.403Z,6.00
2018-06-16T00:08:34.496Z,5.65
2018-06-16T00:09:08.116Z,9.18
2018-06-16T00:09:41.281Z,6.55
2018-06-16T00:10:14.416Z,7.10
2018-06-16T00:10:47.594Z,6.30
2018-06-16T00:11:20.724Z,5.83
2018-06-16T00:11:53.885Z,5.40
2018-06-16T00:12:26.945Z,6.80
2018-06-16T00:13:00.332Z,6.37
2018-06-16T00:13:33.631Z,5.25
2018-06-16T00:14:07.124Z,5.28
2018-06-16T00:14:40.243Z,5.50
2018-06-16T00:15:13.324Z,6.40
2018-06-16T00:15:46.418Z,17.80
2018-06-16T00:16:19.826Z,7.15
2018-06-16T00:16:52.910Z,5.80
2018-06-16T00:17:26.061Z,5.83
2018-06-16T00:17:59.168Z,5.42
2018-06-16T00:18:32.297Z,5.80
2018-06-16T00:19:05.592Z,5.62
2018-06-16T00:19:38.750Z,5.45
2018-06-16T00:20:11.889Z,5.78
2018-06-16T00:20:45.113Z,5.40
2018-06-16T00:21:18.174Z,5.90
2018-06-16T00:21:51.279Z,5.97
2018-06-16T00:22:24.663Z,5.50
2018-06-16T00:22:57.858Z,6.15
2018-06-16T00:23:31.068Z,5.60
2018-06-16T00:24:04.172Z,5.40
2018-06-16T00:24:37.500Z,6.03
2018-06-16T00:25:10.621Z,5.75
2018-06-16T00:25:43.744Z,5.55
2018-06-16T00:26:16.906Z,5.85
2018-06-16T00:26:50.111Z,5.20
2018-06-16T00:27:23.600Z,5.20
2018-06-16T00:27:56.784Z,5.40
2018-06-16T00:28:29.901Z,6.40
2018-06-16T00:29:03.015Z,6.95
2018-06-16T00:29:36.108Z,7.10
2018-06-16T00:30:09.384Z,7.53
2018-06-16T00:30:42.769Z,5.80
2018-06-16T00:31:15.884Z,5.75
2018-06-16T00:31:49.007Z,5.30
2018-06-16T00:32:22.196Z,5.40
2018-06-16T00:32:55.315Z,5.35
2018-06-16T00:33:28.396Z,5.28
2018-06-16T00:34:01.499Z,9.85
2018-06-16T00:34:34.599Z,7.55
2018-06-16T00:35:07.898Z,7.75
2018-06-16T00:35:41.002Z,8.20
2018-06-16T00:36:14.127Z,5.78
2018-06-16T00:36:47.215Z,5.28
2018-06-16T00:37:20.695Z,5.40
2018-06-16T00:37:54.053Z,5.72
2018-06-16T00:38:27.171Z,5.90
2018-06-16T00:39:00.270Z,5.65
2018-06-16T00:39:33.395Z,4.65
2018-06-16T00:40:06.698Z,5.70
2018-06-16T00:40:39.890Z,5.78
2018-06-16T00:41:13.022Z,5.97
2018-06-16T00:41:46.218Z,4.92
2018-06-16T00:42:19.391Z,5.40
2018-06-16T00:42:52.470Z,6.55
2018-06-16T00:43:25.599Z,5.40
2018-06-16T00:43:58.683Z,5.85
2018-06-16T00:44:31.787Z,5.53
2018-06-16T00:45:04.986Z,5.65
2018-06-16T00:45:38.146Z,5.80
2018-06-16T00:46:11.335Z,6.30
2018-06-16T00:46:44.552Z,5.78
2018-06-16T00:47:17.815Z,5.50
2018-06-16T00:47:50.912Z,5.17
2018-06-16T00:48:24.085Z,5.55
2018-06-16T00:48:57.352Z,5.90
2018-06-16T00:49:30.576Z,6.17
2018-06-16T00:50:03.683Z,5.45
2018-06-16T00:50:36.872Z,6.30
2018-06-16T00:51:10.373Z,5.58
2018-06-16T00:51:43.464Z,5.70
2018-06-16T00:52:16.599Z,5.05
2018-06-16T00:52:49.740Z,5.45
2018-06-16T00:53:22.954Z,5.05
2018-06-16T00:53:56.146Z,5.92
2018-06-16T00:54:29.342Z,5.90
2018-06-16T00:55:02.508Z,6.10
2018-06-16T00:55:35.686Z,6.03
2018-06-16T00:56:08.804Z,5.53
2018-06-16T00:56:41.922Z,6.70
2018-06-16T00:57:20.437Z,5.90
2018-06-16T00:57:53.690Z,5.22
2018-06-16T00:58:26.913Z,5.40
2018-06-16T00:59:00.386Z,5.58
2018-06-16T00:59:33.515Z,5.33
2018-06-16T01:00:06.626Z,5.62
2018-06-16T01:00:39.829Z,5.60
2018-06-16T01:01:13.127Z,6.62
2018-06-16T01:01:46.223Z,6.78
2018-06-16T01:02:19.321Z,6.05
2018-06-16T01:02:52.526Z,6.33
2018-06-16T01:03:25.833Z,6.10
2018-06-16T01:03:59.216Z,6.05
2018-06-16T01:04:32.713Z,6.20
2018-06-16T01:05:05.853Z,6.75
2018-06-16T01:05:39.050Z,6.47
2018-06-16T01:06:12.339Z,6.10
2018-06-16T01:06:45.488Z,5.62
2018-06-16T01:07:18.590Z,7.05
2018-06-16T01:07:51.744Z,7.60
2018-06-16T01:08:24.955Z,6.62
2018-06-16T01:08:58.095Z,7.95
2018-06-16T01:09:31.276Z,7.30
2018-06-16T01:10:04.387Z,7.05
2018-06-16T01:10:37.771Z,7.40
2018-06-16T01:11:11.136Z,7.37
2018-06-16T01:11:44.328Z,6.87
2018-06-16T01:12:17.419Z,7.08
2018-06-16T01:12:50.541Z,7.45
2018-06-16T01:13:23.964Z,7.10
2018-06-16T01:13:57.053Z,7.42
2018-06-16T01:14:30.182Z,7.28
2018-06-16T01:15:03.409Z,7.33
2018-06-16T01:15:36.528Z,7.80
2018-06-16T01:16:09.650Z,7.33
2018-06-16T01:16:42.772Z,7.22
2018-06-16T01:17:16.215Z,6.78
2018-06-16T01:17:49.321Z,6.42
2018-06-16T01:18:22.462Z,6.90
2018-06-16T01:18:55.641Z,7.83
2018-06-16T01:19:29.124Z,7.00
2018-06-16T01:20:02.719Z,7.30
2018-06-16T01:20:35.888Z,6.90
2018-06-16T01:21:09.015Z,7.20
2018-06-16T01:21:42.131Z,7.62
2018-06-16T01:22:15.256Z,7.20
2018-06-16T01:22:48.345Z,8.08
2018-06-16T01:23:21.472Z,7.83
2018-06-16T01:23:54.843Z,8.15
2018-06-16T01:24:28.148Z,7.58
2018-06-16T01:25:01.423Z,7.33
2018-06-16T01:25:34.517Z,7.75
2018-06-16T01:26:07.866Z,8.40
2018-06-16T01:26:41.171Z,7.72
2018-06-16T01:27:14.436Z,7.20
2018-06-16T01:27:47.731Z,8.08
2018-06-16T01:28:20.836Z,8.13
2018-06-16T01:28:54.077Z,9.00
2018-06-16T01:29:27.204Z,8.30
2018-06-16T01:30:00.423Z,7.83
2018-06-16T01:30:33.603Z,7.97
2018-06-16T01:31:06.901Z,8.25
2018-06-16T01:31:40.387Z,8.23
2018-06-16T01:32:13.496Z,8.40
2018-06-16T01:32:46.627Z,7.50
2018-06-16T01:33:19.799Z,8.13
2018-06-16T01:33:52.981Z,7.50
2018-06-16T01:34:26.079Z,7.30
2018-06-16T01:34:59.465Z,7.65
2018-06-16T01:35:32.579Z,7.40
2018-06-16T01:36:05.678Z,6.83
2018-06-16T01:36:38.996Z,7.17
2018-06-16T01:37:12.112Z,7.08
2018-06-16T01:37:45.260Z,6.60
2018-06-16T01:38:18.400Z,7.33
2018-06-16T01:38:51.518Z,6.95
2018-06-16T01:39:24.780Z,6.83
2018-06-16T01:39:57.958Z,6.90
2018-06-16T01:40:31.079Z,7.22
2018-06-16T01:41:04.302Z,7.33
2018-06-16T01:41:37.920Z,7.08
2018-06-16T01:42:11.193Z,6.72
2018-06-16T01:42:44.297Z,6.80
2018-06-16T01:43:17.377Z,6.92
2018-06-16T01:43:50.628Z,7.33
2018-06-16T01:44:24.013Z,7.60
2018-06-16T01:44:57.194Z,6.95
2018-06-16T01:45:30.371Z,6.80
2018-06-16T01:46:03.493Z,7.03
2018-06-16T01:46:36.619Z,7.15
2018-06-16T01:47:10.240Z,7.67
2018-06-16T01:47:43.354Z,7.03
2018-06-16T01:48:16.563Z,7.20
2018-06-16T01:48:49.850Z,6.50
2018-06-16T01:49:22.943Z,6.90
2018-06-16T01:49:56.060Z,7.10
2018-06-16T01:50:29.383Z,7.20
2018-06-16T01:51:02.484Z,6.60
2018-06-16T01:51:35.589Z,6.70
2018-06-16T01:52:09.327Z,7.60
2018-06-16T01:52:42.584Z,6.80
2018-06-16T01:53:15.888Z,7.62
2018-06-16T01:53:48.986Z,7.55
2018-06-16T01:54:22.121Z,7.30
2018-06-16T01:54:55.636Z,7.62
2018-06-16T01:55:28.810Z,6.85
2018-06-16T01:56:01.978Z,6.37
2018-06-16T01:56:35.180Z,7.12
2018-06-16T01:57:08.291Z,7.45
2018-06-16T01:57:41.502Z,6.40
2018-06-16T01:58:14.677Z,7.62
2018-06-16T01:58:47.850Z,7.33
2018-06-16T01:59:21.030Z,7.50
2018-06-16T01:59:54.131Z,7.50
2018-06-16T02:00:27.387Z,7.42
2018-06-16T02:01:00.577Z,7.35
2018-06-16T02:01:33.706Z,6.67
2018-06-16T02:02:07.050Z,6.78
2018-06-16T02:02:40.146Z,7.65
2018-06-16T02:03:13.267Z,7.00
2018-06-16T02:03:46.352Z,7.10
2018-06-16T02:04:19.464Z,7.20
2018-06-16T02:04:52.573Z,7.65
2018-06-16T02:05:25.698Z,7.72
2018-06-16T02:05:58.999Z,7.42
2018-06-16T02:06:32.112Z,6.97
2018-06-16T02:07:05.311Z,7.75
2018-06-16T02:07:38.533Z,7.40
2018-06-16T02:08:11.594Z,7.58
2018-06-16T02:08:44.761Z,6.72
2018-06-16T02:09:17.818Z,8.05
2018-06-16T02:09:51.119Z,7.20
2018-06-16T02:10:24.244Z,7.45
2018-06-16T02:10:57.371Z,7.00
2018-06-16T02:11:30.652Z,7.30
2018-06-16T02:12:03.757Z,7.87
2018-06-16T02:12:37.114Z,8.23
2018-06-16T02:13:10.312Z,7.58
2018-06-16T02:13:43.393Z,7.30
2018-06-16T02:14:16.540Z,7.15
2018-06-16T02:14:49.741Z,7.10
2018-06-16T02:15:22.843Z,7.33
2018-06-16T02:15:55.933Z,8.30
2018-06-16T02:16:29.053Z,7.45
2018-06-16T02:17:02.144Z,7.55
2018-06-16T02:17:35.305Z,7.53
2018-06-16T02:18:08.504Z,7.30
2018-06-16T02:18:41.661Z,7.75
2018-06-16T02:19:14.858Z,7.17
2018-06-16T02:19:48.017Z,7.92
2018-06-16T02:20:21.329Z,8.38
2018-06-16T02:20:54.516Z,8.50
2018-06-16T02:21:27.652Z,7.78
2018-06-16T02:22:00.864Z,7.12
2018-06-16T02:22:33.968Z,7.85
2018-06-16T02:23:07.102Z,7.47
2018-06-16T02:23:40.404Z,7.35
2018-06-16T02:24:13.500Z,7.78
2018-06-16T02:24:46.639Z,7.72
2018-06-16T02:25:19.815Z,7.65
2018-06-16T02:25:53.116Z,7.90
2018-06-16T02:26:26.245Z,7.33
2018-06-16T02:26:59.368Z,7.97
2018-06-16T02:27:32.478Z,7.08
2018-06-16T02:28:05.563Z,7.80
2018-06-16T02:28:38.722Z,7.97
2018-06-16T02:29:11.877Z,7.62
2018-06-16T02:29:44.960Z,7.55
2018-06-16T02:30:18.111Z,8.18
2018-06-16T02:30:51.217Z,7.87
2018-06-16T02:31:24.371Z,8.30
2018-06-16T02:31:57.459Z,6.85
2018-06-16T02:32:30.554Z,7.62
2018-06-16T02:33:03.695Z,7.90
2018-06-16T02:33:36.796Z,7.65
2018-06-16T02:34:09.899Z,7.87
2018-06-16T02:34:43.044Z,7.60
2018-06-16T02:35:16.137Z,8.83
2018-06-16T02:35:49.253Z,8.80
2018-06-16T02:36:22.538Z,7.17
2018-06-16T02:36:55.640Z,8.60
2018-06-16T02:37:28.824Z,8.43
2018-06-16T02:38:02.120Z,8.60
2018-06-16T02:38:35.322Z,7.97
2018-06-16T02:39:09.391Z,7.78
2018-06-16T02:39:42.520Z,8.05
2018-06-16T02:40:15.619Z,7.97
2018-06-16T02:40:48.695Z,8.68
2018-06-16T02:41:21.813Z,8.60
2018-06-16T02:41:55.179Z,8.73
2018-06-16T02:42:28.332Z,8.78
2018-06-16T02:43:01.419Z,8.15
2018-06-16T02:43:34.706Z,8.93
2018-06-16T02:44:07.912Z,8.15
2018-06-16T02:44:41.029Z,8.38
2018-06-16T02:45:14.114Z,8.55
2018-06-16T02:45:47.399Z,8.55
2018-06-16T02:46:20.495Z,8.85
2018-06-16T02:46:53.621Z,8.18
2018-06-16T02:47:26.953Z,8.35
2018-06-16T02:48:00.070Z,7.87
2018-06-16T02:48:33.173Z,7.95
2018-06-16T02:49:06.482Z,7.35
2018-06-16T02:49:39.619Z,8.30
2018-06-16T02:50:12.856Z,8.00
2018-06-16T02:50:46.042Z,7.80
2018-06-16T02:51:19.318Z,8.23
2018-06-16T02:51:52.498Z,7.97
2018-06-16T02:52:25.605Z,8.83
2018-06-16T02:52:58.722Z,8.10
2018-06-16T02:53:31.927Z,9.00
2018-06-16T02:54:05.080Z,8.33
2018-06-16T02:54:38.388Z,7.78
2018-06-16T02:55:11.518Z,7.72
2018-06-16T02:55:44.995Z,8.33
2018-06-16T02:56:18.125Z,8.60
2018-06-16T02:56:51.240Z,9.13
2018-06-16T02:57:24.483Z,8.53
2018-06-16T02:57:57.775Z,8.20
2018-06-16T02:58:30.929Z,8.03
2018-06-16T02:59:04.012Z,8.80
2018-06-16T02:59:37.199Z,9.50
2018-06-16T03:00:10.680Z,8.63
2018-06-16T03:00:43.788Z,8.90
2018-06-16T03:01:17.033Z,9.50
2018-06-16T03:01:50.208Z,7.70
2018-06-16T03:02:23.323Z,8.80
2018-06-16T03:02:56.682Z,9.95
2018-06-16T03:03:29.782Z,8.85
2018-06-16T03:04:02.880Z,8.80
2018-06-16T03:04:35.990Z,8.73
2018-06-16T03:05:09.093Z,10.00
2018-06-16T03:05:42.188Z,8.53
2018-06-16T03:06:15.322Z,8.63
2018-06-16T03:06:48.500Z,9.20
2018-06-16T03:07:21.580Z,9.10
2018-06-16T03:07:54.855Z,9.33
2018-06-16T03:08:28.030Z,9.23
2018-06-16T03:09:01.149Z,8.50
2018-06-16T03:09:34.388Z,9.63
2018-06-16T03:10:07.692Z,9.15
2018-06-16T03:10:40.825Z,9.43
2018-06-16T03:11:13.919Z,8.23
2018-06-16T03:11:47.148Z,9.95
2018-06-16T03:12:20.280Z,9.38
2018-06-16T03:12:53.479Z,10.40
2018-06-16T03:13:26.966Z,8.85
2018-06-16T03:14:00.126Z,10.53
2018-06-16T03:14:33.236Z,9.43
2018-06-16T03:15:06.324Z,9.80
2018-06-16T03:15:39.434Z,10.15
2018-06-16T03:16:12.499Z,8.90
2018-06-16T03:16:45.839Z,10.18
2018-06-16T03:17:19.022Z,10.08
2018-06-16T03:17:52.119Z,8.93
2018-06-16T03:18:25.377Z,8.88
2018-06-16T03:18:58.489Z,9.50
2018-06-16T03:19:31.606Z,9.83
2018-06-16T03:20:05.116Z,9.75
2018-06-16T03:20:38.255Z,9.03
2018-06-16T03:21:11.370Z,9.55
2018-06-16T03:21:44.660Z,9.78
2018-06-16T03:22:17.817Z,9.43
2018-06-16T03:22:51.086Z,9.75
2018-06-16T03:23:24.214Z,9.83
2018-06-16T03:23:57.422Z,9.05
2018-06-16T03:24:30.851Z,10.23
2018-06-16T03:25:04.131Z,9.73
2018-06-16T03:25:37.223Z,8.80
2018-06-16T03:26:10.356Z,9.38
2018-06-16T03:26:43.562Z,9.48
2018-06-16T03:27:16.655Z,10.15
2018-06-16T03:27:49.770Z,9.20
2018-06-16T03:28:23.091Z,10.13
2018-06-16T03:28:56.205Z,9.93
2018-06-16T03:29:29.451Z,9.70
2018-06-16T03:30:02.631Z,9.95
2018-06-16T03:30:35.737Z,9.90
2018-06-16T03:31:08.839Z,10.18
2018-06-16T03:31:41.897Z,9.08
2018-06-16T03:32:15.035Z,10.13
2018-06-16T03:32:48.312Z,9.63
2018-06-16T03:33:21.419Z,9.35
2018-06-16T03:33:54.527Z,9.53
2018-06-16T03:34:27.743Z,10.00
2018-06-16T03:35:00.921Z,10.18
2018-06-16T03:35:34.099Z,10.50
2018-06-16T03:36:07.191Z,9.73
2018-06-16T03:36:40.295Z,10.00
2018-06-16T03:37:13.631Z,10.38
2018-06-16T03:37:46.932Z,10.30
2018-06-16T03:38:20.047Z,9.63
2018-06-16T03:38:53.268Z,9.90
2018-06-16T03:39:26.376Z,10.70
2018-06-16T03:39:59.487Z,10.25
2018-06-16T03:40:32.599Z,9.45
2018-06-16T03:41:05.686Z,8.98
2018-06-16T03:41:38.808Z,10.55
2018-06-16T03:42:11.945Z,9.80
2018-06-16T03:42:45.064Z,9.65
2018-06-16T03:43:18.245Z,9.88
2018-06-16T03:43:51.477Z,9.50
2018-06-16T03:44:24.674Z,8.90
2018-06-16T03:44:57.778Z,9.33
2018-06-16T03:45:31.008Z,9.65
2018-06-16T03:46:04.136Z,9.75
2018-06-16T03:46:37.282Z,10.50
2018-06-16T03:47:10.661Z,10.20
2018-06-16T03:47:43.768Z,11.20
2018-06-16T03:48:16.882Z,10.00
2018-06-16T03:48:50.080Z,9.28
2018-06-16T03:49:23.206Z,10.63
2018-06-16T03:49:56.557Z,10.48
2018-06-16T03:50:29.803Z,9.25
2018-06-16T03:51:03.094Z,9.45
2018-06-16T03:51:36.288Z,10.10
2018-06-16T03:52:09.546Z,9.38
2018-06-16T03:52:42.927Z,9.58
2018-06-16T03:53:16.058Z,10.30
2018-06-16T03:53:49.291Z,10.25
2018-06-16T03:54:22.469Z,11.15
2018-06-16T03:54:55.769Z,9.78
2018-06-16T03:55:28.872Z,9.95
2018-06-16T03:56:01.986Z,10.08
2018-06-16T03:56:35.195Z,10.08
2018-06-16T03:57:08.373Z,9.85
2018-06-16T03:57:42.181Z,10.72
2018-06-16T03:58:15.271Z,10.55
2018-06-16T03:58:48.386Z,10.05
2018-06-16T03:59:21.812Z,9.28
2018-06-16T03:59:54.948Z,9.90
2018-06-16T04:00:28.041Z,10.00
2018-06-16T04:01:01.162Z,9.75
2018-06-16T04:01:34.296Z,10.75
2018-06-16T04:02:07.400Z,10.58
2018-06-16T04:02:40.528Z,9.95
2018-06-16T04:03:13.624Z,9.30
2018-06-16T04:03:46.745Z,10.63
2018-06-16T04:04:20.105Z,10.45
2018-06-16T04:04:53.488Z,9.00
2018-06-16T04:05:26.588Z,10.35
2018-06-16T04:05:59.924Z,9.40
2018-06-16T04:06:33.129Z,9.08
2018-06-16T04:07:06.324Z,9.80
2018-06-16T04:07:39.443Z,9.45
2018-06-16T04:08:12.663Z,9.80
2018-06-16T04:08:45.795Z,10.20
2018-06-16T04:09:18.901Z,9.10
2018-06-16T04:09:52.063Z,9.35
2018-06-16T04:10:25.257Z,9.68
2018-06-16T04:10:58.340Z,9.40
2018-06-16T04:11:31.406Z,9.00
2018-06-16T04:12:04.605Z,9.88
2018-06-16T04:12:37.744Z,9.90
2018-06-16T04:13:10.839Z,9.90
2018-06-16T04:13:44.016Z,10.60
2018-06-16T04:14:17.222Z,9.98
2018-06-16T04:14:50.404Z,9.33
2018-06-16T04:15:23.523Z,10.38
2018-06-16T04:15:56.739Z,9.78
2018-06-16T04:16:29.918Z,9.18
2018-06-16T04:17:09.045Z,8.88
2018-06-16T04:17:42.170Z,9.50
2018-06-16T04:18:15.308Z,10.70
2018-06-16T04:18:48.418Z,9.80
2018-06-16T04:19:21.634Z,10.25
2018-06-16T04:19:54.840Z,9.05
2018-06-16T04:20:27.957Z,9.80
2018-06-16T04:21:01.051Z,11.95
2018-06-16T04:21:34.475Z,10.50
2018-06-16T04:22:07.580Z,10.58
2018-06-16T04:22:40.700Z,10.80
2018-06-16T04:23:13.846Z,12.25
2018-06-16T04:23:47.062Z,10.80
2018-06-16T04:24:20.251Z,9.88
2018-06-16T04:24:53.424Z,9.63
2018-06-16T04:25:26.725Z,10.18
2018-06-16T04:25:59.838Z,10.48
2018-06-16T04:26:32.970Z,9.83
2018-06-16T04:27:06.124Z,9.60
2018-06-16T04:27:39.228Z,10.53
2018-06-16T04:28:12.341Z,9.55
2018-06-16T04:28:45.728Z,10.40
2018-06-16T04:29:18.834Z,10.68
2018-06-16T04:29:52.044Z,10.98
2018-06-16T04:30:25.161Z,10.88
2018-06-16T04:30:58.300Z,10.20
2018-06-16T04:31:31.417Z,9.88
2018-06-16T04:32:04.995Z,10.82
2018-06-16T04:32:38.238Z,10.68
2018-06-16T04:33:11.360Z,11.45
2018-06-16T04:33:44.492Z,11.35
2018-06-16T04:34:17.789Z,11.15
2018-06-16T04:34:51.029Z,10.75
2018-06-16T04:35:24.090Z,11.97
2018-06-16T04:35:57.306Z,11.83
2018-06-16T04:36:30.436Z,11.00
2018-06-16T04:37:04.687Z,11.80
2018-06-16T04:37:37.804Z,10.80
2018-06-16T04:38:10.940Z,11.50
2018-06-16T04:38:44.158Z,11.43
2018-06-16T04:39:17.260Z,11.25
2018-06-16T04:39:50.500Z,11.57
2018-06-16T04:40:23.646Z,10.82
2018-06-16T04:40:56.763Z,11.78
2018-06-16T04:41:30.029Z,12.35
2018-06-16T04:42:03.509Z,11.43
2018-06-16T04:42:36.570Z,10.85
2018-06-16T04:43:09.650Z,11.50
2018-06-16T04:43:42.744Z,10.35
2018-06-16T04:44:15.941Z,11.65
2018-06-16T04:44:49.172Z,11.85
2018-06-16T04:45:22.316Z,11.43
2018-06-16T04:45:55.606Z,11.35
2018-06-16T04:46:28.706Z,10.98
2018-06-16T04:47:01.841Z,11.93
2018-06-16T04:47:35.219Z,12.00
2018-06-16T04:48:08.390Z,11.05
2018-06-16T04:48:41.518Z,11.03
2018-06-16T04:49:14.936Z,11.88
2018-06-16T04:49:48.062Z,12.05
2018-06-16T04:50:21.146Z,13.10
2018-06-16T04:50:54.250Z,12.33
2018-06-16T04:51:27.335Z,12.58
2018-06-16T04:52:00.457Z,12.15
2018-06-16T04:52:33.603Z,12.80
2018-06-16T04:53:06.782Z,12.90
2018-06-16T04:53:40.076Z,12.88
2018-06-16T04:54:13.180Z,12.35
2018-06-16T04:54:46.276Z,12.73
2018-06-16T04:55:19.628Z,12.45
2018-06-16T04:55:52.774Z,12.58
2018-06-16T04:56:26.093Z,12.35
2018-06-16T04:57:00.311Z,12.95
2018-06-16T04:57:33.804Z,12.33
2018-06-16T04:58:06.958Z,12.40
2018-06-16T04:58:40.672Z,11.95
2018-06-16T04:59:15.494Z,11.68
2018-06-16T04:59:48.965Z,12.10
2018-06-16T05:00:22.263Z,12.23
2018-06-16T05:00:55.370Z,12.47
2018-06-16T05:01:31.028Z,11.85
2018-06-16T05:02:04.147Z,11.20
2018-06-16T05:02:37.381Z,10.85
2018-06-16T05:03:10.547Z,12.07
2018-06-16T05:03:43.647Z,11.63
2018-06-16T05:04:16.778Z,11.83
2018-06-16T05:04:50.187Z,12.58
2018-06-16T05:05:23.486Z,10.95
2018-06-16T05:05:56.631Z,11.15
2018-06-16T05:06:29.854Z,11.18
2018-06-16T05:07:03.197Z,13.05
2018-06-16T05:07:36.485Z,11.38
2018-06-16T05:08:09.966Z,11.18
2018-06-16T05:08:43.323Z,11.15
2018-06-16T05:09:16.632Z,11.80
2018-06-16T05:09:49.825Z,10.68
2018-06-16T05:10:22.960Z,11.25
2018-06-16T05:10:56.140Z,11.50
2018-06-16T05:11:29.243Z,11.03
2018-06-16T05:12:02.367Z,10.88
2018-06-16T05:12:35.810Z,10.78
2018-06-16T05:13:10.198Z,10.88
2018-06-16T05:13:43.414Z,10.45
2018-06-16T05:14:16.778Z,10.53
2018-06-16T05:14:49.903Z,11.15
2018-06-16T05:15:23.011Z,9.95
2018-06-16T05:15:56.292Z,10.40
2018-06-16T05:16:29.914Z,11.05
2018-06-16T05:17:03.100Z,10.43
2018-06-16T05:17:36.263Z,10.78
2018-06-16T05:18:09.343Z,10.35
2018-06-16T05:18:42.617Z,9.33
2018-06-16T05:19:15.715Z,10.25
2018-06-16T05:19:48.832Z,10.55
2018-06-16T05:20:21.952Z,10.30
2018-06-16T05:20:55.039Z,9.83
2018-06-16T05:21:28.383Z,9.85
2018-06-16T05:22:01.688Z,9.70
2018-06-16T05:22:34.784Z,9.45
2018-06-16T05:23:07.951Z,9.38
2018-06-16T05:23:41.095Z,10.20
2018-06-16T05:24:14.396Z,10.35
2018-06-16T05:24:47.574Z,10.00
2018-06-16T05:25:20.648Z,9.20
2018-06-16T05:25:53.934Z,10.18
2018-06-16T05:26:27.111Z,10.10
2018-06-16T05:27:00.220Z,10.55
2018-06-16T05:27:33.421Z,9.90
2018-06-16T05:28:06.535Z,9.65
2018-06-16T05:28:39.744Z,9.98
2018-06-16T05:29:12.871Z,9.55
2018-06-16T05:29:45.957Z,9.20
2018-06-16T05:30:19.242Z,9.68
2018-06-16T05:30:52.384Z,9.35
2018-06-16T05:31:25.510Z,8.78
2018-06-16T05:31:58.728Z,9.23
2018-06-16T05:32:31.960Z,9.15
2018-06-16T05:33:05.943Z,9.50
2018-06-16T05:33:39.078Z,9.75
2018-06-16T05:34:12.259Z,9.03
2018-06-16T05:34:45.704Z,8.93
2018-06-16T05:35:18.830Z,8.55
2018-06-16T05:35:52.049Z,9.35
2018-06-16T05:36:25.244Z,9.25
2018-06-16T05:36:58.363Z,9.10
2018-06-16T05:37:31.622Z,8.68
2018-06-16T05:38:05.001Z,8.53
2018-06-16T05:38:38.122Z,8.85
2018-06-16T05:39:11.630Z,8.73
2018-06-16T05:39:44.929Z,8.20
2018-06-16T05:40:18.007Z,8.88
2018-06-16T05:40:51.175Z,8.88
2018-06-16T05:41:24.294Z,8.48
2018-06-16T05:41:57.523Z,8.30
2018-06-16T05:42:30.638Z,8.68
2018-06-16T05:43:03.878Z,8.58
2018-06-16T05:43:37.054Z,9.13
2018-06-16T05:44:10.208Z,8.33
2018-06-16T05:44:43.419Z,8.63
2018-06-16T05:45:16.652Z,8.95
2018-06-16T05:45:49.783Z,8.55
2018-06-16T05:46:22.948Z,8.33
2018-06-16T05:46:56.128Z,9.28
2018-06-16T05:47:29.199Z,8.50
2018-06-16T05:48:02.476Z,8.00
2018-06-16T05:48:35.638Z,7.95
2018-06-16T05:49:08.831Z,8.15
2018-06-16T05:49:42.013Z,8.18
2018-06-16T05:50:15.218Z,8.25
2018-06-16T05:50:48.445Z,8.80
2018-06-16T05:51:21.587Z,8.08
2018-06-16T05:51:54.746Z,8.10
2018-06-16T05:52:29.479Z,8.18
2018-06-16T05:53:02.589Z,8.33
2018-06-16T05:53:35.932Z,8.60
2018-06-16T05:54:09.070Z,8.28
2018-06-16T05:54:42.186Z,7.80
2018-06-16T05:55:15.980Z,7.17
2018-06-16T05:55:49.200Z,7.80
2018-06-16T05:56:22.374Z,7.65
2018-06-16T05:56:55.499Z,8.25
2018-06-16T05:57:28.710Z,7.50
2018-06-16T05:58:01.785Z,8.10
2018-06-16T05:58:34.927Z,7.55
2018-06-16T05:59:08.026Z,7.25
2018-06-16T05:59:41.232Z,7.25
2018-06-16T06:00:14.325Z,7.72
2018-06-16T06:00:47.660Z,7.30
2018-06-16T06:01:21.012Z,7.45
2018-06-16T06:01:54.054Z,7.80
2018-06-16T06:02:27.293Z,7.25
2018-06-16T06:03:00.476Z,7.45
2018-06-16T06:03:33.915Z,7.35
2018-06-16T06:04:07.241Z,8.13
2018-06-16T06:04:40.375Z,7.58
2018-06-16T06:05:13.526Z,7.20
2018-06-16T06:05:46.780Z,6.72
2018-06-16T06:06:19.912Z,7.00
2018-06-16T06:06:53.188Z,7.08
2018-06-16T06:07:26.299Z,6.67
2018-06-16T06:07:59.690Z,7.60
2018-06-16T06:08:32.879Z,7.20
2018-06-16T06:09:06.413Z,6.95
2018-06-16T06:09:39.506Z,7.20
2018-06-16T06:10:12.636Z,7.78
2018-06-16T06:10:45.781Z,7.37
2018-06-16T06:11:18.889Z,7.47
2018-06-16T06:11:52.130Z,6.85
2018-06-16T06:12:25.333Z,7.45
2018-06-16T06:12:58.608Z,6.90
2018-06-16T06:13:31.683Z,6.75
2018-06-16T06:14:05.512Z,7.28
2018-06-16T06:14:38.949Z,7.10
2018-06-16T06:15:12.120Z,7.90
2018-06-16T06:15:45.319Z,7.33
2018-06-16T06:16:18.460Z,7.03
2018-06-16T06:16:51.569Z,6.58
2018-06-16T06:17:24.856Z,6.58
2018-06-16T06:17:58.033Z,6.95
2018-06-16T06:18:32.206Z,7.17
2018-06-16T06:19:05.611Z,6.00
2018-06-16T06:19:39.036Z,6.72
2018-06-16T06:20:12.285Z,6.70
2018-06-16T06:20:45.458Z,7.40
2018-06-16T06:21:18.641Z,7.25
2018-06-16T06:21:51.746Z,7.53
2018-06-16T06:22:24.876Z,6.83
2018-06-16T06:22:58.023Z,6.90
2018-06-16T06:23:31.259Z,6.10
2018-06-16T06:24:04.641Z,7.40
2018-06-16T06:24:37.772Z,7.22
2018-06-16T06:25:10.899Z,6.78
2018-06-16T06:25:44.176Z,6.70
2018-06-16T06:26:17.291Z,6.70
2018-06-16T06:26:50.367Z,6.67
2018-06-16T06:27:23.593Z,6.83
2018-06-16T06:27:57.179Z,6.67
2018-06-16T06:28:30.249Z,6.65
2018-06-16T06:29:03.395Z,6.30
2018-06-16T06:29:36.476Z,7.50
2018-06-16T06:30:09.848Z,6.62
2018-06-16T06:30:42.901Z,6.95
2018-06-16T06:31:15.986Z,7.20
2018-06-16T06:31:49.326Z,6.80
2018-06-16T06:32:22.522Z,7.00
2018-06-16T06:32:55.671Z,6.80
2018-06-16T06:33:29.003Z,6.17
2018-06-16T06:34:02.308Z,6.22
2018-06-16T06:34:35.423Z,6.50
2018-06-16T06:35:08.730Z,5.65
2018-06-16T06:35:41.820Z,6.65
2018-06-16T06:36:14.895Z,7.05
2018-06-16T06:36:48.055Z,6.70
2018-06-16T06:37:21.331Z,7.03
2018-06-16T06:37:54.404Z,7.08
2018-06-16T06:38:27.539Z,7.10
2018-06-16T06:39:00.767Z,7.50
2018-06-16T06:39:33.892Z,7.78
2018-06-16T06:40:07.319Z,7.45
2018-06-16T06:40:40.498Z,6.75
2018-06-16T06:41:13.957Z,7.08
2018-06-16T06:41:47.189Z,6.92
2018-06-16T06:42:20.460Z,7.25
2018-06-16T06:42:53.677Z,7.10
2018-06-16T06:43:26.826Z,7.30
2018-06-16T06:43:59.969Z,6.90
2018-06-16T06:44:33.108Z,7.45
2018-06-16T06:45:06.276Z,6.65
2018-06-16T06:45:39.527Z,6.58
2018-06-16T06:46:12.623Z,7.62
2018-06-16T06:46:45.819Z,6.95
2018-06-16T06:47:18.964Z,7.45
2018-06-16T06:47:52.055Z,7.12
2018-06-16T06:48:25.241Z,6.47
2018-06-16T06:48:58.470Z,6.33
2018-06-16T06:49:31.699Z,7.30
2018-06-16T06:50:04.942Z,6.87
2018-06-16T06:50:38.078Z,6.85
2018-06-16T06:51:11.204Z,6.95
2018-06-16T06:51:44.377Z,7.72
2018-06-16T06:52:17.664Z,7.37
2018-06-16T06:52:51.099Z,7.33
2018-06-16T06:53:24.219Z,6.85
2018-06-16T06:53:57.298Z,7.12
2018-06-16T06:54:30.557Z,7.60
2018-06-16T06:55:03.704Z,7.55
2018-06-16T06:55:36.934Z,8.48
2018-06-16T06:56:10.013Z,7.40
2018-06-16T06:56:43.141Z,7.03
2018-06-16T06:57:16.455Z,7.15
2018-06-16T06:57:49.768Z,7.05
2018-06-16T06:58:22.963Z,7.65
2018-06-16T06:58:56.197Z,7.30
2018-06-16T06:59:30.333Z,7.33
2018-06-16T07:00:04.178Z,8.45
2018-06-16T07:00:38.031Z,7.67
2018-06-16T07:01:11.411Z,7.72
2018-06-16T07:01:44.635Z,7.33
2018-06-16T07:02:18.847Z,7.60
2018-06-16T07:02:51.933Z,7.80
2018-06-16T07:03:25.072Z,7.72
2018-06-16T07:03:58.437Z,8.25
2018-06-16T07:04:31.522Z,7.95
2018-06-16T07:05:04.824Z,8.25
2018-06-16T07:05:37.963Z,8.50
2018-06-16T07:06:11.438Z,7.58
2018-06-16T07:06:44.601Z,8.05
2018-06-16T07:07:17.779Z,7.85
2018-06-16T07:07:50.916Z,7.35
2018-06-16T07:08:24.025Z,7.87
2018-06-16T07:08:57.196Z,8.03
2018-06-16T07:09:30.542Z,7.90
2018-06-16T07:10:03.862Z,7.97
2018-06-16T07:10:37.045Z,8.13
2018-06-16T07:11:10.335Z,7.85
2018-06-16T07:11:43.502Z,7.87
2018-06-16T07:12:16.883Z,8.15
2018-06-16T07:12:50.060Z,7.55
2018-06-16T07:13:23.259Z,8.05
2018-06-16T07:13:56.451Z,7.28
2018-06-16T07:14:29.591Z,7.42
2018-06-16T07:15:02.788Z,7.37
2018-06-16T07:15:36.002Z,6.92
2018-06-16T07:16:09.564Z,7.67
2018-06-16T07:16:42.694Z,7.83
2018-06-16T07:17:15.912Z,6.95
2018-06-16T07:17:49.052Z,7.97
2018-06-16T07:18:22.333Z,8.05
2018-06-16T07:18:55.475Z,7.78
2018-06-16T07:19:28.898Z,7.47